RUNWAY INFORMATION
Runway Length Width Elevation Displaced
Threshold
Heading | Runway Length Width Elevation Displaced
Threshold
Heading
14 7382 ft 150 ft 673 ft 958 ft 138 | 32 7382 ft 150 ft 662 ft 962 ft 318

 AIRPORT FREQUENCIES
Type APP Name APP Frequency 123.75 MHZ
Type ATIS Name ATIS Frequency 118.025 MHZ
Type ILS Rw 32/ Name Frequency 110.9 MHZ
Type TWR Name TWR Frequency 120.3 MHZ

 AIRPORT NEAR NAVIGATION AIDS
Type NDB Name Leeds Bradford Frequency 403 KHZ

 METAR AND TAF INFORMATION
METAR FOR EGNM
ADDS - METARS form results

(1503 UTC 01 August 2021)
Data provider http://aviationweather.gov/metar/data/
 
METAR text: EGNM 011450Z 02007KT 350V050 9999 FEW024 14/09 Q1013
Conditions at: EGNM (LEEDS AND BRADFO, GB) observed 1450 UTC 01 August 2021
Temperature: 14.0°C (57°F)
Dewpoint: 9.0°C (48°F) [RH = 72%]
Pressure (altimeter): 29.91 inches Hg (1013.0 mb)
Winds: from the NNE (20 degrees) at 8 MPH (7 knots; 3.6 m/s)
Visibility: 6 or more miles (10+ km)
Ceiling: at least 12,000 feet AGL
Clouds: few clouds at 2400 feet AGL
Weather: no significant weather observed at this time

METAR text: EGNM 011420Z 01009KT 9999 FEW024 SCT032 15/09 Q1013
Conditions at: EGNM (LEEDS AND BRADFO, GB) observed 1420 UTC 01 August 2021
Temperature: 15.0°C (59°F)
Dewpoint: 9.0°C (48°F) [RH = 67%]
Pressure (altimeter): 29.91 inches Hg (1013.0 mb)
Winds: from the N (10 degrees) at 10 MPH (9 knots; 4.6 m/s)
Visibility: 6 or more miles (10+ km)
Ceiling: at least 12,000 feet AGL
Clouds: few clouds at 2400 feet AGL
scattered clouds at 3200 feet AGL
Weather: no significant weather observed at this time

Forecast for: EGNM (LEEDS AND BRADFO, GB)
Text: TAF EGNM 011059Z 0112/0212 04005KT 9999 FEW014 SCT035
Forecast period: 1200 UTC 01 August 2021 to 1200 UTC 02 August 2021
Forecast type: FROM: standard forecast or significant change
Winds: from the NE (40 degrees) at 6 MPH (5 knots; 2.6 m/s)
Visibility: 6 or more miles (10+ km)
Ceiling: at least 12,000 feet AGL
Clouds: few clouds at 1400 feet AGL
scattered clouds at 3500 feet AGL
Weather: no significant weather forecast for this period
Text: PROB30
Forecast period: 1200 to 1600 UTC 01 August 2021
Forecast type: TEMPORARY: The following changes expected for less than half the time period
Visibility: 5 miles (8 km)
Ceiling: unknown
Clouds: missing
Weather: -SHRA  (light rain showers)
Text: TEMPO 0112/0116 8000 -SHRA
Forecast period: 1000 to 1200 UTC 02 August 2021
Forecast type: TEMPORARY: The following changes expected for less than half the time period
Visibility: 4 miles (6 km)
Ceiling: unknown
Clouds: missing
Weather: SHRA  (rain showers)



© 2013 - 2021, FlightSimLog.org - Powered by Virtual Airlines Manager